< < Back
Terminal Aerodrome Forecast


Current Version              Previous Versions:   1  2  3  4  5  6  7  8  9  

Terminal Aerodrome Forecast

125
FTUS42 KMLB 251120
TAFDAB
TAF
KDAB 251120Z 2512/2612 11005KT P6SM FEW060 SCT090
     FM251500 07013KT P6SM SCT040
     FM260100 08004KT P6SM SKC=

Latest METAR

134
SAUS80 KWBC 261000 RRA
MTRDAB
METAR KDAB 260953Z 00000KT 10SM FEW020 FEW055 FEW250 19/17 A3016 RMK AO2
SLP211 T01940167


USA.gov is the U.S. government's official web portal to all federal, state and local government web resources and services.